Startpagina
METAR-TAF:

METAR-TAF

Vliegvelden :

Internationale luchthaven van Nouakchott

Nouakchott, Mauritanië

breedte: 18-18-36N, lengte: 015-58-11W, hoogte: 3 m

Actueel weer

Dit bericht is 29 minuten geleden gemaakt, om 16:30 UTC
Wind 17 kt uit het westnoordwesten
Temperatuur 28°C
Vochtigheid 70%
Druk 1013 hPa
Zicht: 8000 m

METAR: GQNO 151630Z 29017KT 8000 NSC 28/22 Q1013 NOSIG

Tijdstip: 16:59 (16:59 UTC)

Verwachting

Dit bericht is 5 uur en het 59 minuten geleden gemaakt, om 11:00 UTC
Verwachting geldig van 15 om 12 UTC tot 16 om 18 UTC
Wind 8 kt uit het westzuidwesten
Zicht: 8000 m
Wijzigt naar
van 15 om 15 UTC tot 15 om 17 UTC
Wind 10 kt uit het noordwesten
Tijdelijke
van 16 om 04 UTC tot 16 om 09 UTC
Gebroken wolken op 800 ft

TAF: GQNO 151100Z 1512/1618 25008KT 8000 NSC BECMG 1515/1517 31010KT TEMPO 1604/1609 BKN008

Waarnemingen en weersverwachtingen van meer dan 4000 vliegvelden (METAR en TAF).

De beschikbare stations zijn de gele en rode punten op de kaart.

Ga met uw muis naar het station om de naam te zien.

Klik dan om waarnemingen en weersverwachtingen te zien.

kaart wijzigen: klik op de groene knoppen met een zwart kruis om in te zoomen, op de groene knop met een streepje om uit te zoomen of op de groene pijlen voor aangrenzende kaarten.


METAR-TAF: